Portada
METAR-TAF:

METAR-TAF

Aeropuertos :

Izumo, Japón

latitud: 35-25N, longitud: 132-54E, altitud: 2 m

Observación

El informe se hizo hace 1 hora y 11 minutos, a las 22:00 UTC
Viento 5 kt del sur-sureste
Temperatura 20°C
Humedad 73%
Presión 1006 hPa
Visibilidad 10 km o más
Escasas nubes a una altura de 1500 ft
Cielo nuboso

METAR: RJOC 022200Z 16005KT 9999 FEW015 BKN/// 20/15 Q1006

Hora: 08:11 (23:11 UTC)

Pronóstico

El informe se hizo hace 6 horas y 6 minutos, a las 17:05 UTC
Pronóstico válido del 02 a las 18 UTC al 04 a las 00 UTC
Viento 8 kt del suroeste
Visibilidad 10 km o más
Escasas nubes a una altura de 1500 ft

TAF: RJOC 021705Z 0218/0400 22008KT 9999 FEW015

Observaciones y pronósticos meteorológicos de más de 4000 aeropuertos (mensajes METAR y TAF).

Los puntos amarillos y rojos representan las estaciones disponibles.

Ponga el ratón en el punto deseado para ver el nombre de la estación.

Haga clic para ver las observaciones y los pronósticos meteorológicos.

Para cambiar el mapa : haga clic en los botones verdes con una cruz de color negro para hacer un zoom, en el botón verde con un guión para alejar o en las flechas verdes para mapas adyacentes.


METAR-TAF: